Time;durP1;ratioP1;P1;durP2;ratioP2;P2;SDS_P1;SDS_P2;PMS_P1;PMS_P2;Temp;Humidity;BMP_temperature;BMP_pressure;BME280_temperature;BME280_humidity;BME280_pressure;Samples;Min_cycle;Max_cycle;Signal;HPM_P1;HPM_P2
2022/07/21 00:01:12;;;;;;;10.63;9.45;;;;;;;21.65;100.00;96690.00;5113470;27;20185;-82
2022/07/21 00:03:39;;;;;;;11.02;9.90;;;;;;;21.59;100.00;96693.94;5119461;27;20268;-82
2022/07/21 00:06:07;;;;;;;12.70;10.02;;;;;;;21.58;100.00;96694.22;5114546;27;20227;-82
2022/07/21 00:08:35;;;;;;;10.18;9.10;;;;;;;21.60;100.00;96695.56;5117637;27;20204;-82
2022/07/21 00:11:02;;;;;;;10.45;9.23;;;;;;;21.64;100.00;96699.34;5109315;27;20219;-82
2022/07/21 00:13:31;;;;;;;11.10;8.73;;;;;;;21.74;100.00;96707.50;5111343;27;20203;-82
2022/07/21 00:15:58;;;;;;;9.32;8.52;;;;;;;21.80;100.00;96695.31;5123390;27;20200;-82
2022/07/21 00:18:28;;;;;;;9.82;8.82;;;;;;;21.87;100.00;96703.19;5121082;27;20210;-82
2022/07/21 00:20:56;;;;;;;9.05;8.15;;;;;;;21.89;100.00;96703.72;5110590;27;20215;-82
2022/07/21 00:23:24;;;;;;;9.20;8.30;;;;;;;21.93;100.00;96701.22;5117134;27;20227;-82
2022/07/21 00:25:51;;;;;;;10.20;8.63;;;;;;;21.96;100.00;96697.88;5115272;27;20204;-82
2022/07/21 00:28:19;;;;;;;9.68;8.48;;;;;;;21.98;100.00;96701.19;5112092;27;20208;-82
2022/07/21 00:30:48;;;;;;;9.98;8.98;;;;;;;21.97;100.00;96707.75;5121959;27;20258;-82
2022/07/21 00:33:15;;;;;;;9.50;8.45;;;;;;;21.97;100.00;96694.00;5118583;27;20222;-82
2022/07/21 00:35:42;;;;;;;9.25;8.35;;;;;;;21.96;100.00;96703.38;5111440;27;20204;-82
2022/07/21 00:38:10;;;;;;;9.95;8.48;;;;;;;21.77;100.00;96706.09;5112660;27;20260;-82
2022/07/21 00:40:37;;;;;;;9.38;8.35;;;;;;;21.66;100.00;96710.06;5113348;27;20206;-82
2022/07/21 00:43:04;;;;;;;9.70;8.80;;;;;;;21.57;100.00;96695.31;5114840;27;20295;-82
2022/07/21 00:45:31;;;;;;;10.10;9.20;;;;;;;21.57;100.00;96696.16;5117401;27;20207;-82
2022/07/21 00:48:00;;;;;;;12.07;10.20;;;;;;;21.55;100.00;96709.34;5115267;27;20267;-82
2022/07/21 00:50:27;;;;;;;10.73;9.73;;;;;;;21.42;100.00;96712.78;5120953;27;20313;-82
2022/07/21 00:52:54;;;;;;;10.25;9.25;;;;;;;21.54;100.00;96710.47;5109814;27;20212;-82
2022/07/21 00:55:24;;;;;;;10.23;9.20;;;;;;;21.57;100.00;96709.88;5120313;27;20211;-82
2022/07/21 00:57:52;;;;;;;9.93;9.02;;;;;;;21.62;100.00;96711.75;5136551;27;20208;-82
2022/07/21 01:00:23;;;;;;;9.63;8.68;;;;;;;21.68;100.00;96716.09;5111680;28;20223;-83
2022/07/21 01:02:50;;;;;;;12.15;8.93;;;;;;;21.63;100.00;96705.13;5113817;27;20211;-82
2022/07/21 01:05:19;;;;;;;10.23;9.18;;;;;;;21.53;100.00;96711.56;5112540;27;20228;-82
2022/07/21 01:07:47;;;;;;;9.65;8.57;;;;;;;21.51;100.00;96708.31;5110678;27;20206;-82
2022/07/21 01:10:16;;;;;;;10.40;9.40;;;;;;;21.60;100.00;96706.56;5110406;28;20219;-82
2022/07/21 01:12:43;;;;;;;11.02;8.95;;;;;;;21.70;100.00;96709.16;5127627;27;20208;-82
2022/07/21 01:15:13;;;;;;;9.18;8.38;;;;;;;21.75;100.00;96700.06;5120788;28;20204;-82
2022/07/21 01:17:41;;;;;;;10.07;9.18;;;;;;;21.77;100.00;96704.16;5110073;28;20200;-82
2022/07/21 01:20:11;;;;;;;9.75;8.75;;;;;;;21.75;100.00;96698.13;5118393;27;20220;-82
2022/07/21 01:22:42;;;;;;;10.40;9.30;;;;;;;21.60;100.00;96703.00;5123241;28;20204;-82
2022/07/21 01:25:10;;;;;;;11.23;9.82;;;;;;;21.46;100.00;96706.41;5133123;27;20229;-82
2022/07/21 01:27:38;;;;;;;9.90;9.00;;;;;;;21.38;100.00;96703.47;5117780;28;20310;-84
2022/07/21 01:30:08;;;;;;;10.63;9.63;;;;;;;21.28;100.00;96698.09;5128914;27;20284;-83
2022/07/21 01:32:35;;;;;;;10.43;9.43;;;;;;;21.23;100.00;96695.41;5110540;28;20314;-83
2022/07/21 01:35:03;;;;;;;19.02;10.18;;;;;;;21.23;100.00;96689.91;5118647;28;20291;-84
2022/07/21 01:37:32;;;;;;;11.43;10.02;;;;;;;21.27;100.00;96683.53;5109343;28;20193;-84
2022/07/21 01:42:44;;;;;;;10.93;9.82;;;;;;;21.28;100.00;96687.09;5118716;27;20257;-83
2022/07/21 01:45:11;;;;;;;11.20;9.43;;;;;;;21.26;100.00;96694.84;5113873;28;20193;-84
2022/07/21 01:47:40;;;;;;;10.02;9.00;;;;;;;21.27;100.00;96690.97;5115729;27;20208;-84
2022/07/21 01:50:08;;;;;;;11.85;9.43;;;;;;;21.33;100.00;96693.38;5127786;27;20222;-83
2022/07/21 01:52:35;;;;;;;10.30;9.40;;;;;;;21.31;100.00;96681.84;5128476;27;20207;-84
2022/07/21 01:55:04;;;;;;;10.00;8.88;;;;;;;21.22;100.00;96683.59;5117077;27;20235;-84
2022/07/21 01:57:32;;;;;;;9.75;8.75;;;;;;;21.08;100.00;96680.69;5123847;27;20220;-83
2022/07/21 01:59:59;;;;;;;11.77;9.77;;;;;;;21.06;100.00;96680.16;5120524;27;20290;-84
2022/07/21 02:02:26;;;;;;;12.18;9.50;;;;;;;21.09;100.00;96678.78;5115066;27;20209;-84
2022/07/21 02:04:53;;;;;;;11.23;9.48;;;;;;;21.15;100.00;96677.59;5119136;27;20319;-84
2022/07/21 02:07:20;;;;;;;11.20;10.10;;;;;;;21.22;100.00;96671.78;5123533;27;20241;-84
2022/07/21 02:09:47;;;;;;;11.50;10.18;;;;;;;21.29;100.00;96672.25;5118026;27;20299;-84
2022/07/21 02:12:15;;;;;;;10.43;9.52;;;;;;;21.27;100.00;96661.56;5118300;27;20192;-83
2022/07/21 02:14:43;;;;;;;12.30;10.48;;;;;;;21.22;100.00;96663.56;5114419;27;20219;-84
2022/07/21 02:17:10;;;;;;;10.88;9.88;;;;;;;21.18;100.00;96662.50;5114802;27;20211;-84
2022/07/21 02:19:37;;;;;;;11.85;10.38;;;;;;;21.28;100.00;96667.88;5124242;27;20282;-84
2022/07/21 02:22:04;;;;;;;10.57;9.55;;;;;;;21.39;100.00;96669.41;5123412;27;20203;-84
2022/07/21 02:24:31;;;;;;;10.25;9.35;;;;;;;21.40;100.00;96673.81;5112968;27;20200;-84
2022/07/21 02:26:58;;;;;;;10.55;9.48;;;;;;;21.47;100.00;96677.03;5111404;27;20211;-84
2022/07/21 02:29:26;;;;;;;9.95;8.95;;;;;;;21.47;100.00;96668.78;5125800;27;20272;-84
2022/07/21 02:31:53;;;;;;;10.55;9.45;;;;;;;21.38;100.00;96668.59;5112551;27;20224;-84
2022/07/21 02:34:21;;;;;;;10.30;9.30;;;;;;;21.41;100.00;96667.19;5116866;27;20200;-84
2022/07/21 02:36:48;;;;;;;11.38;9.20;;;;;;;21.42;100.00;96666.91;5120334;27;20214;-84
2022/07/21 02:39:15;;;;;;;11.43;8.88;;;;;;;21.52;100.00;96677.78;5117503;27;20491;-84
2022/07/21 02:41:42;;;;;;;10.20;9.20;;;;;;;21.54;100.00;96669.25;5118559;27;20200;-84
2022/07/21 02:44:09;;;;;;;9.85;8.95;;;;;;;21.60;100.00;96670.03;5117129;27;20265;-84
2022/07/21 02:46:38;;;;;;;10.52;9.45;;;;;;;21.69;100.00;96665.50;5113949;27;20219;-83
2022/07/21 02:49:05;;;;;;;10.45;9.30;;;;;;;21.75;100.00;96681.66;5115862;27;20285;-84
2022/07/21 02:51:32;;;;;;;12.30;10.93;;;;;;;21.74;100.00;96685.50;5115402;27;20212;-83
2022/07/21 02:53:59;;;;;;;11.20;9.93;;;;;;;21.76;100.00;96672.28;5114638;27;20265;-84
2022/07/21 02:56:26;;;;;;;10.10;9.10;;;;;;;21.83;100.00;96670.00;5115003;27;20291;-84
2022/07/21 02:58:53;;;;;;;11.45;9.80;;;;;;;21.97;100.00;96667.38;5112065;27;20218;-84
2022/07/21 03:01:20;;;;;;;11.05;9.55;;;;;;;21.98;100.00;96665.44;5111237;27;20204;-84
2022/07/21 03:03:49;;;;;;;11.98;10.00;;;;;;;21.99;100.00;96672.56;5109072;27;20242;-84
2022/07/21 03:06:16;;;;;;;12.82;11.02;;;;;;;21.92;100.00;96683.09;5134339;27;20239;-84
2022/07/21 03:08:43;;;;;;;13.05;10.30;;;;;;;21.83;100.00;96678.25;5108565;27;20446;-83
2022/07/21 03:11:10;;;;;;;10.63;9.57;;;;;;;21.79;100.00;96668.94;5117768;27;20212;-83
2022/07/21 03:13:37;;;;;;;12.30;10.57;;;;;;;21.82;100.00;96673.03;5117404;27;20203;-84
2022/07/21 03:16:04;;;;;;;13.85;10.35;;;;;;;21.85;100.00;96670.53;5119578;27;20209;-84
2022/07/21 03:18:31;;;;;;;11.27;10.18;;;;;;;21.84;100.00;96674.38;5116215;27;20245;-84
2022/07/21 03:21:00;;;;;;;10.48;9.35;;;;;;;21.79;100.00;96668.94;5115439;27;20204;-84
2022/07/21 03:23:27;;;;;;;12.95;10.40;;;;;;;21.78;100.00;96670.03;5112498;27;20210;-84
2022/07/21 03:25:54;;;;;;;10.02;9.02;;;;;;;21.82;100.00;96675.78;5118587;27;20280;-84
2022/07/21 03:28:21;;;;;;;11.75;10.63;;;;;;;21.93;100.00;96674.56;5116033;27;20196;-84
2022/07/21 03:30:48;;;;;;;10.80;9.68;;;;;;;21.98;100.00;96673.69;5123585;27;20316;-84
2022/07/21 03:33:15;;;;;;;11.05;9.10;;;;;;;22.02;100.00;96680.25;5112678;27;20206;-84
2022/07/21 03:35:43;;;;;;;11.68;9.80;;;;;;;22.00;100.00;96671.47;5111876;27;20196;-84
2022/07/21 03:38:11;;;;;;;12.00;10.80;;;;;;;21.95;100.00;96674.25;5122301;27;20212;-83
2022/07/21 03:40:39;;;;;;;11.95;10.77;;;;;;;21.88;100.00;96678.16;5133079;27;20195;-84
2022/07/21 03:43:08;;;;;;;11.45;10.30;;;;;;;21.90;100.00;96677.88;5118432;27;20337;-84
2022/07/21 03:45:36;;;;;;;12.95;11.75;;;;;;;21.85;100.00;96689.78;5118369;27;20213;-84
2022/07/21 03:48:06;;;;;;;12.18;10.57;;;;;;;21.80;100.00;96684.31;5117281;27;20204;-84
2022/07/21 03:50:34;;;;;;;11.65;10.55;;;;;;;21.83;100.00;96689.25;5109831;27;20257;-84
2022/07/21 03:53:01;;;;;;;11.18;8.95;;;;;;;21.94;100.00;96689.13;5110709;27;20553;-84
2022/07/21 03:55:30;;;;;;;10.10;9.05;;;;;;;21.96;100.00;96687.69;5111299;27;20196;-84
2022/07/21 03:57:59;;;;;;;10.18;9.15;;;;;;;21.98;100.00;96687.44;5120474;27;20299;-84
2022/07/21 04:00:28;;;;;;;11.32;10.23;;;;;;;22.02;100.00;96699.50;5112238;27;20204;-84
2022/07/21 04:02:56;;;;;;;12.10;9.55;;;;;;;21.93;100.00;96691.03;5117272;27;20210;-84
2022/07/21 04:05:24;;;;;;;12.20;9.70;;;;;;;21.89;100.00;96685.31;5122697;27;20231;-84
2022/07/21 04:07:52;;;;;;;11.07;9.98;;;;;;;21.92;100.00;96685.84;5120995;27;20207;-84
2022/07/21 04:10:21;;;;;;;12.38;9.63;;;;;;;21.96;100.00;96695.13;5111387;27;20207;-83
2022/07/21 04:12:50;;;;;;;12.27;10.57;;;;;;;21.97;100.00;96694.00;5128880;27;20200;-84
2022/07/21 04:15:18;;;;;;;13.23;11.93;;;;;;;21.95;100.00;96685.25;5117369;27;20199;-84
2022/07/21 04:17:45;;;;;;;11.05;9.95;;;;;;;21.94;100.00;96684.44;5111714;27;20211;-84
2022/07/21 04:20:14;;;;;;;11.32;10.23;;;;;;;21.97;100.00;96689.38;5110633;27;20200;-83
2022/07/21 04:22:42;;;;;;;11.13;10.00;;;;;;;21.77;100.00;96690.41;5111967;27;20220;-84
2022/07/21 04:25:09;;;;;;;11.25;10.05;;;;;;;21.55;100.00;96687.38;5112250;27;20209;-84
2022/07/21 04:27:37;;;;;;;13.07;10.52;;;;;;;21.33;100.00;96687.88;5110402;27;20269;-83
2022/07/21 04:30:08;;;;;;;11.45;10.35;;;;;;;21.30;100.00;96691.22;5113652;27;20207;-84
2022/07/21 04:32:36;;;;;;;12.23;11.05;;;;;;;21.27;100.00;96689.03;5111820;27;20314;-84
2022/07/21 04:35:03;;;;;;;12.70;11.38;;;;;;;21.33;100.00;96695.31;5116338;27;20219;-84
2022/07/21 04:37:31;;;;;;;12.02;10.45;;;;;;;21.36;100.00;96691.97;5111390;27;20196;-84
2022/07/21 04:39:58;;;;;;;11.15;9.65;;;;;;;21.51;100.00;96708.31;5125281;27;20207;-84
2022/07/21 04:42:25;;;;;;;10.63;9.48;;;;;;;21.63;100.00;96716.13;5114043;27;20196;-84
2022/07/21 04:44:52;;;;;;;11.90;10.70;;;;;;;21.57;100.00;96706.31;5116305;27;20267;-84
2022/07/21 04:47:21;;;;;;;11.23;10.13;;;;;;;21.55;100.00;96705.78;5115725;27;20207;-83
2022/07/21 04:49:48;;;;;;;11.65;10.25;;;;;;;21.57;100.00;96712.63;5119969;27;20188;-84
2022/07/21 04:52:15;;;;;;;11.90;10.73;;;;;;;21.55;100.00;96706.59;5111498;27;20215;-84
2022/07/21 04:54:42;;;;;;;12.15;10.45;;;;;;;21.61;100.00;96710.91;5127762;27;20239;-84
2022/07/21 04:57:09;;;;;;;13.43;11.98;;;;;;;21.67;100.00;96719.94;5110845;27;20261;-84
2022/07/21 04:59:37;;;;;;;13.65;12.23;;;;;;;21.80;100.00;96720.06;5121052;27;20199;-83
2022/07/21 05:02:05;;;;;;;13.88;12.48;;;;;;;21.93;100.00;96718.53;5109607;27;20218;-84
2022/07/21 05:04:34;;;;;;;12.18;11.00;;;;;;;21.94;100.00;96722.13;5117432;27;20225;-84
2022/07/21 05:07:01;;;;;;;11.73;10.48;;;;;;;21.88;100.00;96724.09;5119181;27;20275;-84
2022/07/21 05:09:28;;;;;;;14.23;10.88;;;;;;;21.77;100.00;96720.66;5112235;27;20210;-84
2022/07/21 05:11:55;;;;;;;11.77;10.23;;;;;;;21.63;100.00;96713.38;5109018;28;20216;-83
2022/07/21 05:14:22;;;;;;;11.23;10.23;;;;;;;21.56;100.00;96719.22;5114271;28;20249;-83
2022/07/21 05:16:49;;;;;;;12.13;10.90;;;;;;;21.59;100.00;96715.91;5110770;28;20201;-83
2022/07/21 05:19:16;;;;;;;12.05;10.25;;;;;;;21.65;100.00;96724.91;5116557;28;20276;-84
2022/07/21 05:21:45;;;;;;;11.98;10.75;;;;;;;21.64;100.00;96713.09;5115200;27;20208;-84
2022/07/21 05:24:12;;;;;;;11.60;10.38;;;;;;;21.64;100.00;96712.28;5117336;27;20207;-84
2022/07/21 05:26:39;;;;;;;12.00;10.80;;;;;;;21.64;100.00;96718.59;5119589;27;20266;-84
2022/07/21 05:29:06;;;;;;;16.95;10.98;;;;;;;21.69;100.00;96710.28;5144344;27;20221;-83
2022/07/21 05:31:33;;;;;;;11.80;10.60;;;;;;;21.72;100.00;96715.19;5120337;27;20215;-81
2022/07/21 05:34:00;;;;;;;11.50;10.30;;;;;;;21.82;100.00;96723.34;5117638;27;20204;-81
2022/07/21 05:36:27;;;;;;;11.63;10.45;;;;;;;21.96;100.00;96725.38;5120205;27;20204;-82
2022/07/21 05:38:56;;;;;;;12.38;10.68;;;;;;;22.10;100.00;96726.34;5123131;27;20203;-82
2022/07/21 05:41:23;;;;;;;11.63;10.52;;;;;;;22.14;100.00;96722.69;5125706;27;20192;-82
2022/07/21 05:43:50;;;;;;;13.05;11.18;;;;;;;22.21;100.00;96727.81;5132809;27;20318;-81
2022/07/21 05:46:17;;;;;;;12.93;10.50;;;;;;;22.08;100.00;96717.56;5119819;27;20200;-82
2022/07/21 05:48:44;;;;;;;11.50;10.40;;;;;;;22.02;100.00;96725.06;5121888;27;20207;-82
2022/07/21 05:51:11;;;;;;;11.02;9.88;;;;;;;22.13;100.00;96722.97;5114572;27;20223;-82
2022/07/21 05:53:38;;;;;;;14.55;10.90;;;;;;;22.15;100.00;96723.50;5114260;27;20375;-82
2022/07/21 05:56:07;;;;;;;12.15;10.75;;;;;;;22.20;100.00;96728.97;5111859;27;20410;-82
2022/07/21 05:58:34;;;;;;;12.27;10.82;;;;;;;22.23;100.00;96725.59;5119734;27;20339;-82
2022/07/21 06:01:12;;;;;;;13.95;10.55;;;;;;;22.24;100.00;96721.75;5122873;27;20204;-83
2022/07/21 06:03:42;;;;;;;13.68;11.15;;;;;;;22.28;100.00;96728.31;5116407;27;20239;-82
2022/07/21 06:06:10;;;;;;;12.25;11.00;;;;;;;22.31;100.00;96727.69;5123689;27;20316;-83
2022/07/21 06:08:38;;;;;;;12.10;10.90;;;;;;;22.42;100.00;96731.13;5117725;27;20210;-82
2022/07/21 06:11:08;;;;;;;12.68;10.90;;;;;;;22.49;100.00;96732.41;5111596;27;20225;-82
2022/07/21 06:13:35;;;;;;;13.13;10.65;;;;;;;22.56;100.00;96721.81;5110256;27;20194;-81
2022/07/21 06:16:04;;;;;;;12.85;11.00;;;;;;;22.61;100.00;96732.78;5111877;27;20261;-81
2022/07/21 06:18:31;;;;;;;12.20;11.00;;;;;;;22.64;100.00;96732.16;5121482;27;20259;-81
2022/07/21 06:20:58;;;;;;;12.63;10.85;;;;;;;22.70;100.00;96734.88;5117331;27;20482;-82
2022/07/21 06:23:26;;;;;;;12.77;11.48;;;;;;;22.72;100.00;96735.34;5130459;27;20202;-82
2022/07/21 06:25:53;;;;;;;12.55;10.82;;;;;;;22.68;100.00;96737.09;5113245;27;20227;-85
2022/07/21 06:28:22;;;;;;;15.45;11.88;;;;;;;22.68;100.00;96740.66;5113591;27;20200;-82
2022/07/21 06:30:50;;;;;;;13.68;11.50;;;;;;;22.62;100.00;96723.41;5110748;27;20293;-82
2022/07/21 06:33:18;;;;;;;12.35;10.48;;;;;;;22.67;100.00;96725.25;5113119;27;20212;-82
2022/07/21 06:35:45;;;;;;;14.10;12.80;;;;;;;22.78;100.00;96725.97;5125389;27;20203;-83
2022/07/21 06:38:12;;;;;;;13.85;11.40;;;;;;;22.85;100.00;96742.91;5116432;27;20213;-83
2022/07/21 06:40:39;;;;;;;11.73;10.63;;;;;;;22.84;100.00;96735.78;5116424;27;20203;-83
2022/07/21 06:43:06;;;;;;;13.63;11.82;;;;;;;22.83;100.00;96734.94;5125273;27;20207;-82
2022/07/21 06:45:34;;;;;;;12.38;11.18;;;;;;;22.83;100.00;96734.13;5115020;27;20208;-83
2022/07/21 06:48:04;;;;;;;11.65;10.50;;;;;;;22.88;100.00;96736.81;5110809;27;20212;-83
2022/07/21 06:50:31;;;;;;;12.70;11.02;;;;;;;22.88;100.00;96743.13;5109652;27;20267;-83
2022/07/21 06:52:58;;;;;;;13.02;11.35;;;;;;;22.95;100.00;96740.81;5114537;27;20220;-83
2022/07/21 06:55:25;;;;;;;16.95;12.30;;;;;;;23.02;100.00;96744.00;5120785;27;20589;-83
2022/07/21 06:57:52;;;;;;;12.38;11.27;;;;;;;22.97;100.00;96741.31;5125904;27;20199;-82
2022/07/21 07:00:20;;;;;;;13.73;12.23;;;;;;;22.85;100.00;96742.91;5117982;27;20208;-83
2022/07/21 07:02:48;;;;;;;13.32;12.02;;;;;;;22.77;100.00;96749.91;5118709;27;20208;-82
2022/07/21 07:05:16;;;;;;;13.70;11.85;;;;;;;22.74;100.00;96741.41;5118486;27;20223;-82
2022/07/21 07:07:43;;;;;;;13.13;11.82;;;;;;;22.66;100.00;96742.88;5117544;27;20199;-79
2022/07/21 07:10:11;;;;;;;12.88;11.65;;;;;;;22.74;100.00;96744.16;5111900;27;20216;-79
2022/07/21 07:12:38;;;;;;;13.73;11.80;;;;;;;22.73;100.00;96750.75;5122228;27;20305;-79
2022/07/21 07:15:06;;;;;;;14.02;12.60;;;;;;;22.79;100.00;96747.69;5116521;27;20211;-79
2022/07/21 07:17:33;;;;;;;13.48;12.02;;;;;;;22.89;100.00;96743.94;5119548;27;20212;-79
2022/07/21 07:20:03;;;;;;;12.70;11.40;;;;;;;22.93;100.00;96747.75;5122083;27;20200;-79
2022/07/21 07:22:30;;;;;;;15.68;12.88;;;;;;;22.83;100.00;96745.16;5117903;27;20208;-80
2022/07/21 07:24:57;;;;;;;14.48;12.05;;;;;;;22.78;100.00;96750.75;5112740;27;20281;-79
2022/07/21 07:27:25;;;;;;;15.60;11.98;;;;;;;22.82;100.00;96749.00;5110688;27;20192;-79
2022/07/21 07:29:53;;;;;;;13.23;11.82;;;;;;;22.85;100.00;96746.50;5117331;27;20196;-80
2022/07/21 07:32:20;;;;;;;12.93;11.32;;;;;;;22.84;100.00;96752.28;5110216;27;20231;-79
2022/07/21 07:34:47;;;;;;;17.42;12.25;;;;;;;22.90;100.00;96740.06;5120149;27;20227;-80
2022/07/21 07:37:15;;;;;;;13.32;11.98;;;;;;;23.04;100.00;96743.72;5111155;27;20199;-79
2022/07/21 07:39:43;;;;;;;15.43;11.95;;;;;;;23.09;100.00;96743.63;5117967;27;20206;-79
2022/07/21 07:42:10;;;;;;;13.50;12.15;;;;;;;23.21;100.00;96746.75;5120387;27;20200;-80
2022/07/21 07:44:37;;;;;;;13.40;12.00;;;;;;;23.23;100.00;96744.47;5121791;27;20212;-79
2022/07/21 07:47:04;;;;;;;13.32;11.95;;;;;;;23.30;100.00;96742.19;5119674;27;20279;-79
2022/07/21 07:49:32;;;;;;;13.23;11.93;;;;;;;23.45;100.00;96745.78;5123701;27;20227;-80
2022/07/21 07:51:59;;;;;;;12.90;11.43;;;;;;;23.54;100.00;96741.22;5118319;27;20307;-80
2022/07/21 07:54:28;;;;;;;13.55;11.50;;;;;;;23.60;100.00;96748.28;5109716;27;20336;-79
2022/07/21 07:56:55;;;;;;;12.32;10.77;;;;;;;23.61;100.00;96750.75;5124465;27;20208;-80
2022/07/21 07:59:22;;;;;;;12.82;11.63;;;;;;;23.71;100.00;96749.72;5117878;27;20200;-79
2022/07/21 08:01:49;;;;;;;13.68;12.25;;;;;;;23.69;100.00;96741.75;5120381;27;20200;-80
2022/07/21 08:04:16;;;;;;;12.57;11.18;;;;;;;23.77;100.00;96743.00;5116763;27;20256;-80
2022/07/21 08:06:43;;;;;;;13.52;12.23;;;;;;;23.68;100.00;96744.81;5107241;27;20301;-80
2022/07/21 08:09:10;;;;;;;14.93;13.23;;;;;;;23.62;100.00;96743.28;5117170;27;20291;-80
2022/07/21 08:11:38;;;;;;;14.43;12.52;;;;;;;23.53;100.00;96740.41;5117510;27;20210;-80
2022/07/21 08:14:06;;;;;;;13.75;12.35;;;;;;;23.53;100.00;96747.88;5115258;27;20219;-80
2022/07/21 08:16:35;;;;;;;14.35;12.25;;;;;;;23.58;100.00;96750.50;5122047;27;20479;-80
2022/07/21 08:19:03;;;;;;;13.93;12.35;;;;;;;23.60;100.00;96748.28;5118391;27;20272;-80
2022/07/21 08:21:30;;;;;;;15.18;12.32;;;;;;;23.60;100.00;96759.31;5112444;27;20200;-83
2022/07/21 08:23:58;;;;;;;13.48;12.20;;;;;;;23.63;100.00;96748.50;5112218;27;20292;-83
2022/07/21 08:26:25;;;;;;;14.25;12.57;;;;;;;23.64;100.00;96750.16;5108568;27;20199;-82
2022/07/21 08:28:54;;;;;;;14.90;12.52;;;;;;;23.64;100.00;96754.84;5120626;27;20238;-83
2022/07/21 08:31:22;;;;;;;15.00;12.82;;;;;;;23.59;100.00;96752.16;5115459;27;20191;-84
2022/07/21 08:33:49;;;;;;;14.50;13.00;;;;;;;23.66;100.00;96750.63;5105817;27;20371;-83
2022/07/21 08:36:17;;;;;;;14.57;13.13;;;;;;;23.58;100.00;96758.78;5104282;27;20199;-83
2022/07/21 08:38:44;;;;;;;14.52;12.95;;;;;;;23.53;100.00;96758.88;5102690;27;20195;-84
2022/07/21 08:41:12;;;;;;;14.07;12.57;;;;;;;23.47;100.00;96760.91;5106706;27;20204;-83
2022/07/21 08:43:39;;;;;;;13.43;12.13;;;;;;;23.47;100.00;96757.31;5116389;27;20235;-84
2022/07/21 08:46:07;;;;;;;17.23;12.60;;;;;;;23.55;100.00;96756.66;5104161;27;20192;-83
2022/07/21 08:48:34;;;;;;;12.63;11.43;;;;;;;23.64;100.00;96760.34;5113700;27;20199;-83
2022/07/21 08:51:02;;;;;;;15.02;13.20;;;;;;;23.68;100.00;96762.19;5102768;27;20207;-82
2022/07/21 08:53:29;;;;;;;14.18;12.77;;;;;;;23.60;100.00;96762.88;5110765;27;20570;-83
2022/07/21 08:55:56;;;;;;;14.70;13.20;;;;;;;23.56;100.00;96753.56;5105596;27;20228;-83
2022/07/21 08:58:23;;;;;;;16.83;12.25;;;;;;;23.67;100.00;96756.97;5112651;27;20223;-83
2022/07/21 09:00:51;;;;;;;13.85;12.43;;;;;;;23.66;100.00;96764.41;5103809;27;20689;-82
2022/07/21 09:03:22;;;;;;;14.73;13.23;;;;;;;23.72;100.00;96756.88;5112342;27;20239;-83
2022/07/21 09:06:06;;;;;;;15.13;12.73;;;;;;;23.73;100.00;96764.03;5122713;27;20235;-82
2022/07/21 09:08:37;;;;;;;15.48;12.18;;;;;;;23.77;100.00;96762.28;5114774;27;20264;-84
2022/07/21 09:11:14;;;;;;;14.43;12.68;;;;;;;23.78;100.00;96769.44;5109302;27;20199;-84
2022/07/21 09:13:41;;;;;;;14.73;12.48;;;;;;;23.75;100.00;96770.03;5107309;27;20245;-83
2022/07/21 09:16:09;;;;;;;14.18;12.77;;;;;;;23.77;100.00;96773.31;5113481;28;20208;-83
2022/07/21 09:18:48;;;;;;;13.57;12.27;;;;;;;23.84;100.00;96770.16;5115948;27;20218;-85
2022/07/21 09:21:17;;;;;;;14.02;12.52;;;;;;;23.94;100.00;96768.03;5107940;28;20237;-84
2022/07/21 09:23:44;;;;;;;14.57;13.13;;;;;;;24.03;100.00;96770.91;5115016;28;20218;-84
2022/07/21 09:26:11;;;;;;;13.82;12.27;;;;;;;24.06;100.00;96762.03;5113267;28;20207;-84
2022/07/21 09:28:38;;;;;;;14.57;12.65;;;;;;;24.11;100.00;96759.97;5116094;28;20207;-84
2022/07/21 09:31:07;;;;;;;13.63;12.30;;;;;;;24.21;100.00;96764.50;5122196;28;20200;-84
2022/07/21 09:33:37;;;;;;;14.52;12.77;;;;;;;24.29;100.00;96755.50;5123692;28;20280;-84
2022/07/21 09:36:09;;;;;;;15.48;12.90;;;;;;;24.43;100.00;96764.56;5121471;28;20208;-84
2022/07/21 09:38:37;;;;;;;14.45;13.05;;;;;;;24.50;97.40;96761.38;5121182;28;20212;-84
2022/07/21 09:41:06;;;;;;;14.43;12.60;;;;;;;24.49;99.26;96751.50;5109477;28;20240;-84
2022/07/21 09:43:41;;;;;;;15.75;12.68;;;;;;;24.55;98.28;96754.94;5106894;27;20211;-84
2022/07/21 09:46:11;;;;;;;13.82;12.43;;;;;;;24.63;96.57;96759.72;5111441;28;20195;-84
2022/07/21 09:48:41;;;;;;;15.18;13.07;;;;;;;24.60;97.50;96763.91;5120691;28;20207;-84
2022/07/21 09:51:27;;;;;;;16.10;12.68;;;;;;;24.70;96.84;96754.59;5121685;28;20222;-84
2022/07/21 09:53:57;;;;;;;15.25;12.90;;;;;;;24.74;96.61;96750.09;5118320;28;20248;-84
2022/07/21 09:56:25;;;;;;;13.95;12.52;;;;;;;24.86;95.08;96753.94;5116716;28;20227;-83
2022/07/21 09:58:54;;;;;;;13.90;12.50;;;;;;;24.94;95.10;96748.81;5111756;28;20204;-84
2022/07/21 10:01:22;;;;;;;14.07;12.75;;;;;;;25.03;93.34;96753.28;5111154;28;20204;-84
2022/07/21 10:03:51;;;;;;;14.02;12.52;;;;;;;25.02;91.53;96753.59;5113483;28;20219;-84
2022/07/21 10:06:21;;;;;;;13.40;12.10;;;;;;;24.99;92.15;96751.47;5113930;28;20318;-84
2022/07/21 10:08:50;;;;;;;17.40;12.82;;;;;;;25.01;91.23;96744.50;5113851;28;20201;-84
2022/07/21 10:11:18;;;;;;;13.60;12.25;;;;;;;25.12;91.17;96745.06;5117154;27;20231;-84
2022/07/21 10:13:45;;;;;;;13.57;12.18;;;;;;;25.27;91.30;96747.44;5123148;27;20227;-84
2022/07/21 10:16:13;;;;;;;13.00;11.80;;;;;;;25.40;88.49;96743.00;5120514;27;20253;-84
2022/07/21 10:18:53;;;;;;;13.18;11.88;;;;;;;25.51;86.68;96752.66;5111535;27;20223;-84
2022/07/21 10:21:28;;;;;;;14.00;12.60;;;;;;;25.60;86.93;96751.59;5109262;27;20208;-84
2022/07/21 10:23:57;;;;;;;13.48;12.07;;;;;;;25.66;87.03;96754.25;5124384;27;20205;-84
2022/07/21 10:26:25;;;;;;;13.15;11.88;;;;;;;25.71;84.75;96757.69;5109099;27;20237;-84
2022/07/21 10:28:52;;;;;;;12.48;11.27;;;;;;;25.69;84.76;96748.09;5125347;27;20219;-84
2022/07/21 10:31:20;;;;;;;12.20;10.98;;;;;;;25.83;84.00;96746.03;5128412;27;20193;-84
2022/07/21 10:33:57;;;;;;;14.98;12.52;;;;;;;25.99;83.71;96744.47;5119230;27;20224;-84
2022/07/21 10:36:44;;;;;;;13.60;12.20;;;;;;;26.07;82.69;96740.91;5115350;27;20196;-84
2022/07/21 10:39:22;;;;;;;15.20;12.18;;;;;;;26.16;82.01;96739.00;5115473;27;20246;-84
2022/07/21 10:41:51;;;;;;;14.18;12.20;;;;;;;26.16;82.19;96736.22;5116547;27;20211;-84
2022/07/21 10:44:40;;;;;;;13.13;11.82;;;;;;;26.25;79.53;96734.31;5119955;27;20273;-84
2022/07/21 10:47:09;;;;;;;13.60;11.20;;;;;;;26.49;79.09;96727.53;5136162;27;20208;-84
2022/07/21 10:49:49;;;;;;;13.93;12.30;;;;;;;26.43;78.13;96731.59;5112218;27;20212;-84
2022/07/21 10:52:59;;;;;;;14.18;11.93;;;;;;;26.43;77.31;96728.84;5119547;27;20235;-84
2022/07/21 10:55:29;;;;;;;13.60;11.02;;;;;;;26.71;75.76;96730.97;5096462;27;20212;-84
2022/07/21 10:58:18;;;;;;;14.45;12.27;;;;;;;26.69;76.42;96724.97;5114157;27;20288;-84
2022/07/21 11:00:47;;;;;;;12.38;10.80;;;;;;;26.87;75.13;96716.66;5112455;27;20302;-84
2022/07/21 11:03:17;;;;;;;12.30;11.10;;;;;;;26.69;74.52;96716.66;5113503;27;20259;-84
2022/07/21 11:06:21;;;;;;;12.90;11.57;;;;;;;26.61;76.04;96708.34;5123957;27;20259;-84
2022/07/21 11:08:51;;;;;;;12.10;10.88;;;;;;;26.87;72.34;96709.19;5120017;27;20222;-84
2022/07/21 11:11:21;;;;;;;11.82;10.52;;;;;;;27.09;69.19;96697.94;5123209;27;20206;-84
2022/07/21 11:14:06;;;;;;;11.48;10.35;;;;;;;27.09;71.23;96692.38;5114634;27;20238;-84
2022/07/21 11:17:01;;;;;;;10.18;9.13;;;;;;;27.26;66.81;96699.06;5110459;27;20212;-84
2022/07/21 11:19:30;;;;;;;10.52;9.48;;;;;;;27.42;64.93;96694.59;5111595;27;20220;-83
2022/07/21 11:21:58;;;;;;;12.02;9.50;;;;;;;27.50;65.61;96686.25;5120690;27;20361;-83
2022/07/21 11:24:26;;;;;;;14.20;10.80;;;;;;;27.84;65.56;96677.03;5111793;27;20191;-83